Historyczne dane pomiarowe

Dodano dane terminowe – wersja testowa.

Dane z okresu 1951-2019

Wersja bazy: 1.34 [2019-03-16, lista zmian], aktualizacja planowana na 2019-04-15

Dane meteo z obszaru Polski uzyskane na podstawie danych udostępnionych przez Instytut Meteorologii i Gospodarki Wodnej – Państwowy Instytut Badawczy.

 

Wybierz Datę:    

       

TemperaturaWilgotnośćWiatrCiśnienieOpadyŚniegCzas trwania zjawisk
 Stacja t tx tn tng RH VA  wxwx mslp ppp RRR   cm mm wxwxwxwxwxwxwx
1961-08-14 14.2 20.8 7.9--- 3.0 0.0---- 0.0------------
1961-08-13 14.1 18.7 12.0--- 2.3 2.7---- 0.0------------
1961-08-12 16.3 21.2 14.5--- 8.0 2.0---- 0.0------------
1961-08-11 17.2 21.4 16.7--- 5.3 0.3---- 8.1------------
1961-08-10 20.5 28.7 18.2--- 2.3 0.7---- 0.0------------
1961-08-09 20.3 25.3 12.5--- 5.0 0.0---- 0.0------------
1961-08-08 18.5 23.3 8.3--- 6.0----- 0.5------------
1961-08-07 18.2 22.5 17.0--- 6.0----- 0.8------------
1961-08-06 22.1 31.2 14.7--- 1.3----- 8.5------------
1961-08-05 20.0 25.4 14.5--- 3.7----- 0.0------------
1961-08-04 15.3 17.5 10.1--- 7.0----- 0.7------------
1961-08-03 13.5 20.2 11.2--- 3.7----- 0.8------------
1961-08-02 15.9 20.5 9.6--- 4.7----- 1.1------------
1961-08-01 16.1 22.0 11.9--- 0.7----- 0.0------------
1961-07-31 13.9 17.1 12.1--- 8.0----- 8.2------------
1961-07-30 13.6 18.4 10.2--- 5.7----- 15.8------------
1961-07-29 13.3 19.7 10.5--- 3.3----- 0.0------------
1961-07-28 15.4 19.9 13.8--- 8.0----- 3.3------------
1961-07-27 20.5 25.7 16.7--- 4.0----- 0.0------------
1961-07-26 19.8 25.4 13.3--- 3.3----- 0.0------------
1961-07-25 14.7 18.8 11.9--- 5.0----- 0.0------------
1961-07-24 14.3 17.2 10.6--- 6.3----- 0.0------------
1961-07-23 14.4 18.1 13.1--- 8.0----- 0.0------------
1961-07-22 15.0 17.5 13.9--- 7.7----- 0.5------------
1961-07-21 14.4 16.0 10.1--- 8.0----- 3.0------------
1961-07-20 15.7 21.5 10.1--- 4.0----- 1.5------------
1961-07-19 14.9 19.0 11.5--- 5.0----- 0.5------------
1961-07-18 15.4 21.6 12.1--- 2.7----- 0.0------------
1961-07-17 13.6 16.3 9.4--- 8.0----- 18.0------------
1961-07-16 15.6 24.0 13.2--- 1.0----- 0.2------------
1961-07-15 17.8 24.1 13.7--- 3.3----- 0.3------------
1961-07-14 16.4 19.0 13.3--- 8.0----- 4.5------------
1961-07-13 19.0 25.5 16.2--- 4.7----- 2.4------------
1961-07-12 22.2 28.4 13.6--- 0.7----- 0.0------------
1961-07-11 18.3 23.4 9.1--- 4.0----- 0.0------------
1961-07-10 13.7 18.0 10.1--- 5.0----- 0.0------------
1961-07-09 14.4 18.4 10.6--- 8.0----- 6.0------------
1961-07-08 17.3 24.4 8.1--- 3.3----- 2.7------------
1961-07-07 13.3 17.5 9.1--- 4.3----- 0.0------------
1961-07-06 11.6 16.5 8.6--- 8.0----- 12.2------------
1961-07-05 12.6 18.5 10.8--- 2.3----- 0.0------------
1961-07-04 16.2 23.9 15.0--- 6.3----- 2.2------------
1961-07-03 24.2 34.8 13.6--- 0.3----- 0.0------------
1961-07-02 25.1 33.3 13.6--- 0.0----- 0.0------------
1961-07-01 23.3 30.8 11.6--- 0.0----- 0.0------------
1961-06-30 20.9----- 0.0----- 0.0------------
1961-06-29 17.3----- 0.0----- 0.0------------
1961-06-28 15.8----- 2.0----- 0.0------------
1961-06-27 19.6----- 3.0----- 1.2------------
1961-06-26 23.8----- 0.0----- 0.0------------
1961-06-25 23.1----- 0.0----- 0.0------------
1961-06-24 19.2----- 1.0----- 0.0------------
1961-06-23 18.7----- 1.3----- 0.0------------
1961-06-22 18.8----- 0.0----- 0.0------------
1961-06-21 15.3----- 4.7----- 0.0------------
1961-06-20 14.6----- 0.0----- 0.0------------
1961-06-19 16.0----- 3.3----- 0.0------------
1961-06-18 22.3----- 0.0----- 0.0------------
1961-06-17 17.5----- 0.0----- 0.0------------
1961-06-16 15.4----- 8.0----- 0.0------------
288.0 ms

 

Źródłem pochodzenia danych jest Instytut Meteorologii i Gospodarki Wodnej – Państwowy Instytut Badawczy. Dane Instytutu Meteorologii i Gospodarki Wodnej – Państwowego Instytutu Badawczego zostały przetworzone.

Dane źródłowe można odnaleźć na stronie https://dane.imgw.pl